Time;durP1;ratioP1;P1;durP2;ratioP2;P2;SDS_P1;SDS_P2;PMS_P1;PMS_P2;Temp;Humidity;BMP_temperature;BMP_pressure;BME280_temperature;BME280_humidity;BME280_pressure;Samples;Min_cycle;Max_cycle;Signal;HPM_P1;HPM_P2
2023/08/06 00:00:38;;;;;;;10.32;6.57;;;14.90;99.90;;;;;;5016630;28;20214;-73
2023/08/06 00:03:04;;;;;;;8.02;6.22;;;14.90;99.90;;;;;;5017370;28;20183;-73
2023/08/06 00:05:30;;;;;;;7.75;5.90;;;14.90;99.90;;;;;;5035315;28;20171;-73
2023/08/06 00:07:56;;;;;;;7.47;5.90;;;14.90;99.90;;;;;;5016215;28;20702;-73
2023/08/06 00:10:21;;;;;;;7.32;6.35;;;14.90;99.90;;;;;;5033465;28;20175;-73
2023/08/06 00:12:48;;;;;;;10.70;6.22;;;14.90;99.90;;;;;;5016188;28;20175;-73
2023/08/06 00:15:14;;;;;;;8.85;5.90;;;14.90;99.90;;;;;;5032101;28;20181;-73
2023/08/06 00:17:40;;;;;;;9.70;5.68;;;14.90;99.90;;;;;;5016778;28;20281;-73
2023/08/06 00:20:06;;;;;;;7.00;5.70;;;14.80;99.90;;;;;;5034750;28;20175;-73
2023/08/06 00:22:36;;;;;;;11.13;6.15;;;14.80;99.90;;;;;;5034887;28;20595;-73
2023/08/06 00:25:03;;;;;;;10.60;5.40;;;14.90;99.90;;;;;;5034211;28;20183;-73
2023/08/06 00:27:29;;;;;;;6.60;5.55;;;14.80;99.90;;;;;;5033373;28;20219;-73
2023/08/06 00:29:55;;;;;;;10.48;6.13;;;14.90;99.90;;;;;;5002953;28;20202;-73
2023/08/06 00:32:21;;;;;;;7.32;5.40;;;14.90;99.90;;;;;;5015204;28;20183;-73
2023/08/06 00:34:49;;;;;;;6.70;5.60;;;14.80;99.90;;;;;;5015196;28;20183;-73
2023/08/06 00:37:17;;;;;;;9.30;6.25;;;14.90;99.90;;;;;;5005880;28;20258;-73
2023/08/06 00:39:44;;;;;;;7.43;5.60;;;14.90;99.90;;;;;;5016515;28;20179;-73
2023/08/06 00:42:10;;;;;;;7.78;6.07;;;14.90;99.90;;;;;;5015342;28;20277;-73
2023/08/06 00:44:37;;;;;;;11.23;6.20;;;14.90;99.90;;;;;;5011013;28;20637;-73
2023/08/06 00:47:03;;;;;;;10.05;5.97;;;14.90;99.90;;;;;;5014674;28;20215;-73
2023/08/06 00:49:29;;;;;;;7.82;5.78;;;14.90;99.90;;;;;;5014721;28;20172;-73
2023/08/06 00:51:56;;;;;;;7.45;5.28;;;14.90;99.90;;;;;;5014898;28;20175;-73
2023/08/06 00:54:23;;;;;;;9.10;5.60;;;14.90;99.90;;;;;;5015419;28;20671;-73
2023/08/06 00:56:49;;;;;;;9.63;5.63;;;14.90;99.90;;;;;;5034228;28;20659;-73
2023/08/06 00:59:15;;;;;;;8.02;5.38;;;14.90;99.90;;;;;;5015922;28;20210;-74
2023/08/06 01:01:41;;;;;;;8.35;5.65;;;14.90;99.90;;;;;;5014566;28;20222;-73
2023/08/06 01:04:07;;;;;;;10.38;5.95;;;14.80;99.90;;;;;;5016409;28;20183;-74
2023/08/06 01:06:47;;;;;;;6.45;5.15;;;14.80;99.90;;;;;;5033096;28;20242;-73
2023/08/06 01:09:48;;;;;;;6.97;5.55;;;14.80;99.90;;;;;;5033621;28;20160;-73
2023/08/06 01:12:22;;;;;;;7.72;5.43;;;14.80;99.90;;;;;;5016460;28;20655;-73
2023/08/06 01:14:58;;;;;;;8.05;6.00;;;14.70;99.90;;;;;;5014598;28;20181;-73
2023/08/06 01:17:26;;;;;;;7.85;5.28;;;14.60;99.90;;;;;;5032720;28;20207;-73
2023/08/06 01:19:52;;;;;;;9.05;5.60;;;14.60;99.90;;;;;;5017684;28;20550;-73
2023/08/06 01:22:18;;;;;;;8.07;5.63;;;14.70;99.90;;;;;;5034341;28;20175;-73
2023/08/06 01:24:48;;;;;;;7.32;5.78;;;14.70;99.90;;;;;;5018010;28;20605;-73
2023/08/06 01:27:48;;;;;;;11.25;5.78;;;14.70;99.90;;;;;;5020179;28;20214;-73
2023/08/06 01:30:28;;;;;;;9.77;6.00;;;14.70;99.90;;;;;;5037792;28;20582;-73
2023/08/06 01:33:00;;;;;;;7.88;5.65;;;14.70;99.90;;;;;;5038302;28;20519;-73
2023/08/06 01:35:27;;;;;;;8.75;5.05;;;14.70;99.90;;;;;;5017972;28;20193;-73
2023/08/06 01:37:54;;;;;;;10.23;5.72;;;14.70;99.90;;;;;;5006385;28;20334;-73
2023/08/06 01:40:20;;;;;;;9.13;6.18;;;14.70;99.90;;;;;;5000310;28;20726;-73
2023/08/06 01:42:45;;;;;;;8.57;5.80;;;14.70;99.90;;;;;;5018490;28;20168;-73
2023/08/06 01:45:11;;;;;;;7.45;6.22;;;14.70;99.90;;;;;;5027046;28;20252;-73
2023/08/06 01:47:37;;;;;;;14.25;6.32;;;14.70;99.90;;;;;;5019857;28;20261;-73
2023/08/06 01:50:03;;;;;;;8.27;5.90;;;14.80;99.90;;;;;;5019351;28;20273;-73
2023/08/06 01:52:29;;;;;;;8.25;6.07;;;14.70;99.90;;;;;;5037621;28;20174;-73
2023/08/06 01:54:55;;;;;;;10.68;6.00;;;14.70;99.90;;;;;;5018772;28;20194;-73
2023/08/06 01:57:21;;;;;;;10.05;6.07;;;14.80;99.90;;;;;;5037491;28;20690;-73
2023/08/06 01:59:47;;;;;;;7.00;5.80;;;14.80;99.90;;;;;;5017653;28;20187;-73
2023/08/06 02:02:13;;;;;;;7.40;5.40;;;14.80;99.90;;;;;;5019982;28;20175;-73
2023/08/06 02:04:38;;;;;;;6.85;5.75;;;14.80;99.90;;;;;;5037035;28;20187;-73
2023/08/06 02:07:04;;;;;;;8.35;6.38;;;14.80;99.90;;;;;;5036614;28;20218;-73
2023/08/06 02:09:30;;;;;;;7.47;6.22;;;14.80;99.90;;;;;;5019621;28;20175;-73
2023/08/06 02:11:56;;;;;;;6.95;6.18;;;14.80;99.90;;;;;;5037787;28;20533;-73
2023/08/06 02:14:21;;;;;;;7.35;5.43;;;14.80;99.90;;;;;;5037554;28;20191;-73
2023/08/06 02:16:47;;;;;;;10.10;6.28;;;14.80;99.90;;;;;;5035971;28;20229;-73
2023/08/06 02:19:13;;;;;;;6.68;5.72;;;14.70;99.90;;;;;;5020016;28;20193;-73
2023/08/06 02:21:39;;;;;;;9.27;5.70;;;14.70;99.90;;;;;;5037150;28;20171;-74
2023/08/06 02:24:04;;;;;;;7.60;6.30;;;14.70;99.90;;;;;;5036127;28;20198;-75
2023/08/06 02:26:30;;;;;;;6.72;5.95;;;14.70;99.90;;;;;;5036458;28;20219;-74
2023/08/06 02:28:56;;;;;;;11.02;6.32;;;14.70;99.90;;;;;;5019157;28;20199;-73
2023/08/06 02:31:22;;;;;;;9.23;6.10;;;14.70;99.90;;;;;;5035634;28;20701;-74
2023/08/06 02:33:47;;;;;;;7.68;6.50;;;14.70;99.90;;;;;;5019699;28;20179;-73
2023/08/06 02:36:13;;;;;;;8.88;6.65;;;14.70;99.90;;;;;;5016968;28;20199;-74
2023/08/06 02:38:39;;;;;;;8.43;6.43;;;14.70;99.90;;;;;;5035666;28;20197;-73
2023/08/06 02:41:05;;;;;;;7.55;5.80;;;14.70;99.90;;;;;;5013804;28;20709;-73
2023/08/06 02:43:31;;;;;;;9.57;6.90;;;14.70;99.90;;;;;;4999163;28;20220;-73
2023/08/06 02:45:57;;;;;;;8.55;5.93;;;14.70;99.90;;;;;;4999497;28;20269;-74
2023/08/06 02:48:23;;;;;;;6.80;6.07;;;14.70;99.90;;;;;;4999331;28;20203;-73
2023/08/06 02:50:49;;;;;;;7.32;6.28;;;14.70;99.90;;;;;;5018485;28;20176;-74
2023/08/06 02:53:15;;;;;;;8.73;5.85;;;14.70;99.90;;;;;;5036247;28;20217;-73
2023/08/06 02:55:48;;;;;;;9.38;6.43;;;14.70;99.90;;;;;;5017695;28;20547;-73
2023/08/06 02:58:14;;;;;;;7.90;5.75;;;14.60;99.90;;;;;;4998783;28;20204;-73
2023/08/06 03:00:40;;;;;;;7.97;6.05;;;14.60;99.90;;;;;;5005335;28;20636;-73
2023/08/06 03:03:06;;;;;;;8.13;5.97;;;14.60;99.90;;;;;;5018456;28;20255;-73
2023/08/06 03:05:32;;;;;;;8.85;6.00;;;14.60;99.90;;;;;;5036190;28;20254;-73
2023/08/06 03:07:57;;;;;;;10.90;5.97;;;14.60;99.90;;;;;;5004521;28;20216;-73
2023/08/06 03:10:23;;;;;;;8.52;5.78;;;14.50;99.90;;;;;;5020469;28;20187;-73
2023/08/06 03:12:49;;;;;;;8.73;6.40;;;14.50;99.90;;;;;;5034237;28;20192;-73
2023/08/06 03:15:15;;;;;;;8.93;6.65;;;14.50;99.90;;;;;;5017567;28;20183;-73
2023/08/06 03:17:41;;;;;;;9.13;5.78;;;14.50;99.90;;;;;;5036028;28;20199;-73
2023/08/06 03:20:07;;;;;;;9.23;6.78;;;14.50;99.90;;;;;;5017408;28;20536;-73
2023/08/06 03:22:33;;;;;;;9.00;6.78;;;14.50;99.90;;;;;;5018074;28;20183;-73
2023/08/06 03:24:59;;;;;;;12.55;6.95;;;14.50;99.90;;;;;;5034822;28;20265;-73
2023/08/06 03:27:25;;;;;;;9.07;6.70;;;14.40;99.90;;;;;;5035928;28;20207;-73
2023/08/06 03:29:51;;;;;;;7.68;5.95;;;14.40;99.90;;;;;;5031672;28;20186;-73
2023/08/06 03:32:17;;;;;;;9.23;6.68;;;14.30;99.90;;;;;;5015971;28;20648;-73
2023/08/06 03:34:43;;;;;;;8.90;6.00;;;14.40;99.90;;;;;;5035217;28;20198;-73
2023/08/06 03:37:08;;;;;;;6.30;5.65;;;14.30;99.90;;;;;;5017237;28;20233;-73
2023/08/06 03:39:34;;;;;;;8.13;6.18;;;14.30;99.90;;;;;;5034211;28;20298;-73
2023/08/06 03:42:00;;;;;;;7.30;5.75;;;14.30;99.90;;;;;;5017362;28;20175;-73
2023/08/06 03:44:27;;;;;;;10.05;6.35;;;14.20;99.90;;;;;;5034031;28;20183;-73
2023/08/06 03:46:52;;;;;;;8.20;5.78;;;14.20;99.90;;;;;;5012024;28;20290;-73
2023/08/06 03:49:18;;;;;;;12.00;5.88;;;14.20;99.90;;;;;;5034941;28;20175;-73
2023/08/06 03:51:44;;;;;;;8.27;5.78;;;14.20;99.90;;;;;;5035422;28;20171;-73
2023/08/06 03:54:10;;;;;;;6.47;5.10;;;14.10;99.90;;;;;;5017017;28;20547;-73
2023/08/06 03:56:36;;;;;;;8.73;6.13;;;14.20;99.90;;;;;;5033683;28;20207;-73
2023/08/06 03:59:01;;;;;;;7.80;5.75;;;14.20;99.90;;;;;;5034992;28;20175;-73
2023/08/06 04:01:27;;;;;;;11.98;6.13;;;14.20;99.90;;;;;;5014989;28;20186;-73
2023/08/06 04:03:53;;;;;;;7.43;5.80;;;14.20;99.90;;;;;;5034819;28;20164;-73
2023/08/06 04:06:18;;;;;;;6.35;5.68;;;14.20;99.90;;;;;;5014122;28;20551;-73
2023/08/06 04:08:44;;;;;;;7.30;6.00;;;14.20;99.90;;;;;;5037002;28;20175;-73
2023/08/06 04:11:10;;;;;;;6.55;5.78;;;14.10;99.90;;;;;;5034618;28;20301;-73
2023/08/06 04:13:36;;;;;;;7.18;5.97;;;14.10;99.90;;;;;;5035397;28;20175;-73
2023/08/06 04:16:05;;;;;;;8.48;5.90;;;14.10;99.90;;;;;;5033648;28;20183;-73
2023/08/06 04:18:31;;;;;;;11.23;6.40;;;14.10;99.90;;;;;;5032588;28;20273;-73
2023/08/06 04:20:57;;;;;;;7.55;5.88;;;14.10;99.90;;;;;;5031682;28;20671;-73
2023/08/06 04:23:24;;;;;;;9.57;5.97;;;14.10;99.90;;;;;;5008286;28;20700;-73
2023/08/06 04:25:49;;;;;;;8.50;5.97;;;14.10;99.90;;;;;;4997016;28;20659;-73
2023/08/06 04:28:15;;;;;;;13.27;6.68;;;14.10;99.90;;;;;;5014480;28;20188;-73
2023/08/06 04:30:41;;;;;;;10.55;5.88;;;14.10;99.90;;;;;;5022023;28;20250;-73
2023/08/06 04:33:06;;;;;;;8.63;6.18;;;14.00;99.90;;;;;;5032918;28;20177;-75
2023/08/06 04:35:32;;;;;;;7.57;6.40;;;14.00;99.90;;;;;;5016238;28;20282;-73
2023/08/06 04:37:58;;;;;;;8.75;6.65;;;14.00;99.90;;;;;;5034288;28;20282;-73
2023/08/06 04:40:24;;;;;;;7.45;5.63;;;14.00;99.90;;;;;;5015713;28;20678;-73
2023/08/06 04:42:49;;;;;;;9.48;6.32;;;14.00;99.90;;;;;;5034083;28;20538;-73
2023/08/06 04:45:15;;;;;;;7.78;6.82;;;14.00;99.90;;;;;;5014682;28;20197;-75
2023/08/06 04:47:41;;;;;;;7.78;6.28;;;14.00;99.90;;;;;;5009740;28;20281;-75
2023/08/06 04:50:07;;;;;;;7.63;6.43;;;14.10;99.90;;;;;;5017135;28;20175;-75
2023/08/06 04:52:33;;;;;;;10.05;6.88;;;14.20;99.90;;;;;;5016204;28;20183;-76
2023/08/06 04:54:59;;;;;;;11.10;7.15;;;14.20;99.90;;;;;;5015262;28;20190;-75
2023/08/06 04:57:24;;;;;;;9.68;6.07;;;14.20;99.90;;;;;;5016065;28;20237;-75
2023/08/06 04:59:50;;;;;;;12.02;6.53;;;14.10;99.90;;;;;;5033280;28;20178;-75
2023/08/06 05:02:16;;;;;;;7.07;6.20;;;14.10;99.90;;;;;;5014487;28;20186;-75
2023/08/06 05:04:42;;;;;;;8.38;5.85;;;14.20;99.90;;;;;;5033787;28;20543;-76
2023/08/06 05:07:07;;;;;;;7.57;5.88;;;14.20;99.90;;;;;;5015018;28;20217;-75
2023/08/06 05:09:33;;;;;;;9.85;6.53;;;14.30;99.90;;;;;;5034171;28;20194;-76
2023/08/06 05:12:03;;;;;;;8.93;6.55;;;14.30;99.90;;;;;;5031133;28;20191;-75
2023/08/06 05:14:29;;;;;;;12.55;6.38;;;14.30;99.90;;;;;;5032966;28;20647;-75
2023/08/06 05:16:55;;;;;;;6.75;6.07;;;14.40;99.90;;;;;;5011617;28;20298;-75
2023/08/06 05:19:20;;;;;;;8.77;5.78;;;14.40;99.90;;;;;;4996284;28;20176;-75
2023/08/06 05:21:46;;;;;;;8.02;6.15;;;14.40;99.90;;;;;;5005555;28;20187;-75
2023/08/06 05:24:12;;;;;;;6.85;5.50;;;14.40;99.90;;;;;;5032292;28;20214;-75
2023/08/06 05:26:38;;;;;;;7.32;5.75;;;14.40;99.90;;;;;;5015219;28;20535;-75
2023/08/06 05:29:03;;;;;;;7.72;5.47;;;14.50;99.90;;;;;;5033554;28;20171;-76
2023/08/06 05:31:29;;;;;;;11.75;9.45;;;14.60;99.90;;;;;;5032464;28;20595;-75
2023/08/06 05:33:55;;;;;;;20.77;11.73;;;14.60;99.90;;;;;;5033349;28;20258;-76
2023/08/06 05:36:21;;;;;;;9.93;6.78;;;14.70;99.90;;;;;;5015487;28;20205;-76
2023/08/06 05:38:47;;;;;;;17.95;11.20;;;14.70;99.90;;;;;;5015498;28;20183;-76
2023/08/06 05:41:13;;;;;;;11.43;7.72;;;14.80;99.90;;;;;;5013748;28;20179;-76
2023/08/06 05:43:39;;;;;;;11.00;6.60;;;14.80;99.90;;;;;;5033319;28;20662;-76
2023/08/06 05:46:05;;;;;;;11.25;6.80;;;14.80;99.90;;;;;;5032485;28;20202;-75
2023/08/06 05:48:31;;;;;;;6.65;5.88;;;14.80;99.90;;;;;;5015955;28;20175;-76
2023/08/06 05:50:58;;;;;;;7.78;6.28;;;14.80;99.90;;;;;;5032930;28;20159;-75
2023/08/06 05:53:24;;;;;;;9.63;6.60;;;14.80;99.90;;;;;;5015577;28;20183;-75
2023/08/06 05:55:50;;;;;;;6.82;5.55;;;14.90;99.90;;;;;;5015132;28;20510;-75
2023/08/06 05:58:16;;;;;;;7.68;5.85;;;15.00;99.90;;;;;;5031885;28;20222;-75
2023/08/06 06:00:41;;;;;;;8.73;5.40;;;15.00;99.90;;;;;;5016072;28;20175;-75
2023/08/06 06:03:07;;;;;;;8.18;5.25;;;15.10;99.90;;;;;;5027855;28;20179;-76
2023/08/06 06:05:33;;;;;;;7.18;5.68;;;15.20;99.90;;;;;;5013984;28;20214;-76
2023/08/06 06:07:58;;;;;;;8.27;5.85;;;15.20;99.90;;;;;;5000653;28;20298;-77
2023/08/06 06:10:24;;;;;;;7.43;5.55;;;15.40;99.90;;;;;;5015515;28;20550;-76
2023/08/06 06:12:50;;;;;;;8.48;5.18;;;15.30;99.90;;;;;;5009878;28;20644;-76
2023/08/06 06:15:16;;;;;;;8.40;5.25;;;15.30;99.90;;;;;;5047724;23;20226;-87
2023/08/06 06:17:41;;;;;;;8.88;5.43;;;15.30;99.90;;;;;;5061297;28;20194;-87
2023/08/06 06:20:35;;;;;;;7.55;4.80;;;15.50;99.90;;;;;;5057773;28;20182;-88
2023/08/06 06:23:01;;;;;;;8.30;5.10;;;15.70;99.90;;;;;;5056691;28;20208;-88
2023/08/06 06:25:34;;;;;;;9.52;4.95;;;15.70;99.90;;;;;;5056568;28;20602;-88
2023/08/06 06:28:00;;;;;;;5.80;4.50;;;15.80;99.90;;;;;;5056809;28;20744;-89
2023/08/06 06:30:25;;;;;;;5.50;4.43;;;16.00;99.90;;;;;;5056313;28;20175;-88
2023/08/06 06:33:01;;;;;;;8.00;4.35;;;16.20;99.90;;;;;;5056870;28;20551;-87
2023/08/06 06:35:27;;;;;;;6.20;4.38;;;16.40;99.90;;;;;;5057898;28;20175;-88
2023/08/06 06:37:53;;;;;;;8.55;4.53;;;16.50;99.90;;;;;;5057153;28;20213;-88
2023/08/06 06:40:18;;;;;;;6.13;4.43;;;16.60;99.90;;;;;;5056550;28;20219;-88
2023/08/06 06:42:44;;;;;;;9.90;4.20;;;16.70;99.90;;;;;;5056854;28;20630;-88
2023/08/06 06:45:10;;;;;;;5.07;3.55;;;16.70;99.90;;;;;;5056684;28;20247;-88
2023/08/06 06:47:38;;;;;;;6.13;3.85;;;16.80;99.90;;;;;;5057632;28;20214;-88
2023/08/06 06:50:04;;;;;;;5.43;3.78;;;17.00;99.90;;;;;;5057884;28;20174;-88
2023/08/06 06:52:30;;;;;;;5.35;3.70;;;17.10;99.90;;;;;;5058187;28;20182;-88
2023/08/06 06:54:55;;;;;;;5.03;3.03;;;17.00;99.90;;;;;;5059932;28;20167;-88
2023/08/06 06:57:21;;;;;;;6.10;3.60;;;16.90;99.90;;;;;;5060611;28;20615;-88
2023/08/06 06:59:47;;;;;;;6.10;3.63;;;16.90;99.90;;;;;;5058078;28;20640;-88
2023/08/06 07:02:12;;;;;;;6.18;3.28;;;16.90;99.90;;;;;;5057484;28;20190;-88
2023/08/06 07:04:38;;;;;;;3.83;3.50;;;16.80;99.90;;;;;;5057623;28;20239;-88
2023/08/06 07:07:13;;;;;;;6.30;3.85;;;16.80;99.90;;;;;;5056313;28;20701;-88
2023/08/06 07:09:39;;;;;;;4.50;3.72;;;16.80;99.90;;;;;;5056110;28;20166;-88
2023/08/06 07:12:05;;;;;;;6.15;3.75;;;16.80;99.90;;;;;;5056782;28;20514;-88
2023/08/06 07:14:31;;;;;;;4.20;2.90;;;16.90;99.90;;;;;;5055258;28;20174;-88
2023/08/06 07:16:56;;;;;;;3.53;2.97;;;16.80;99.90;;;;;;5057606;28;20190;-88
2023/08/06 07:19:23;;;;;;;6.43;3.30;;;16.90;99.90;;;;;;5056891;28;20182;-88
2023/08/06 07:21:49;;;;;;;4.60;3.22;;;16.90;99.90;;;;;;5056347;28;20184;-88
2023/08/06 07:24:15;;;;;;;4.55;3.55;;;17.10;99.90;;;;;;5057430;28;20633;-88
2023/08/06 07:26:41;;;;;;;6.03;3.50;;;17.10;99.90;;;;;;5056919;28;20208;-88
2023/08/06 07:29:06;;;;;;;3.67;3.20;;;17.10;99.90;;;;;;5057954;28;20264;-88
2023/08/06 07:31:32;;;;;;;5.03;2.90;;;17.30;99.90;;;;;;5055925;28;20201;-88
2023/08/06 07:33:58;;;;;;;3.30;2.95;;;17.20;99.90;;;;;;5056465;28;20178;-88
2023/08/06 07:36:34;;;;;;;5.30;2.92;;;17.30;99.90;;;;;;5056686;28;20182;-91
2023/08/06 07:39:00;;;;;;;5.70;3.22;;;17.40;99.90;;;;;;5057447;28;20297;-91
2023/08/06 07:41:26;;;;;;;4.32;3.08;;;17.40;99.90;;;;;;5056944;28;20643;-89
2023/08/06 07:43:52;;;;;;;4.38;3.30;;;17.50;99.90;;;;;;5056430;28;20177;-89
2023/08/06 07:46:18;;;;;;;5.30;3.08;;;17.50;99.90;;;;;;5057921;28;20247;-89
2023/08/06 07:48:43;;;;;;;4.03;3.10;;;17.50;99.90;;;;;;5060268;28;20269;-88
2023/08/06 07:51:10;;;;;;;3.72;2.70;;;17.40;99.90;;;;;;5057403;28;20175;-89
2023/08/06 07:53:37;;;;;;;3.03;2.70;;;17.50;99.90;;;;;;5056040;28;20198;-88
2023/08/06 07:56:05;;;;;;;5.80;3.03;;;17.50;99.90;;;;;;5056740;28;20159;-89
2023/08/06 07:58:31;;;;;;;5.28;3.03;;;17.40;99.90;;;;;;5055757;28;20194;-89
2023/08/06 08:01:03;;;;;;;3.72;3.10;;;17.40;99.90;;;;;;5055725;28;20174;-89
2023/08/06 08:03:29;;;;;;;4.60;3.03;;;17.40;99.90;;;;;;5055444;28;20193;-89
2023/08/06 08:05:58;;;;;;;6.07;3.10;;;17.50;99.90;;;;;;5055799;28;20174;-89
2023/08/06 08:08:26;;;;;;;4.35;2.80;;;17.60;99.90;;;;;;5054603;28;20208;-88
2023/08/06 08:11:03;;;;;;;2.88;2.55;;;17.70;99.90;;;;;;5056033;28;20173;-89
2023/08/06 08:13:29;;;;;;;3.30;2.85;;;17.90;99.90;;;;;;5055011;28;20159;-89
2023/08/06 08:15:58;;;;;;;3.72;2.63;;;18.00;99.90;;;;;;5054119;28;20190;-89
2023/08/06 08:18:28;;;;;;;6.38;2.85;;;18.00;99.90;;;;;;5055915;28;20201;-92
2023/08/06 08:20:54;;;;;;;3.33;2.40;;;18.00;99.90;;;;;;5055278;28;20182;-89
2023/08/06 08:27:02;;;;;;;3.90;3.05;;;18.00;99.90;;;;;;5021688;22;20249;-75
2023/08/06 08:29:27;;;;;;;3.38;2.90;;;17.80;99.90;;;;;;5013191;28;20208;-76
2023/08/06 08:31:53;;;;;;;7.22;3.00;;;17.90;99.90;;;;;;5025145;28;20510;-75
2023/08/06 08:34:19;;;;;;;3.72;3.00;;;18.00;99.90;;;;;;5017515;28;20250;-75
2023/08/06 08:36:49;;;;;;;5.93;2.47;;;18.20;99.90;;;;;;5029383;28;20199;-75
2023/08/06 08:39:15;;;;;;;3.92;2.63;;;18.30;99.90;;;;;;5023284;28;20182;-74
2023/08/06 08:41:41;;;;;;;6.10;3.00;;;18.30;99.90;;;;;;5028531;28;20190;-74
2023/08/06 08:44:13;;;;;;;6.22;2.97;;;18.20;99.90;;;;;;5020570;28;20848;-73
2023/08/06 08:46:40;;;;;;;5.43;2.72;;;18.10;99.90;;;;;;4999443;28;20214;-73
2023/08/06 08:49:06;;;;;;;5.20;3.97;;;18.10;99.90;;;;;;5027112;28;20670;-73
2023/08/06 08:51:34;;;;;;;6.80;3.67;;;18.00;99.90;;;;;;5019456;28;20266;-73
2023/08/06 08:54:03;;;;;;;6.32;4.10;;;17.90;99.90;;;;;;5011293;28;20547;-73
2023/08/06 08:56:29;;;;;;;4.18;3.60;;;17.80;99.90;;;;;;5012104;28;20294;-73
2023/08/06 08:58:55;;;;;;;4.50;3.45;;;17.80;99.90;;;;;;4996225;28;20310;-72
2023/08/06 09:01:23;;;;;;;4.75;3.20;;;17.80;99.90;;;;;;4996448;28;20192;-72
2023/08/06 09:03:51;;;;;;;4.43;3.15;;;17.70;99.90;;;;;;4996425;28;20176;-74
2023/08/06 09:06:18;;;;;;;4.50;3.10;;;17.70;99.90;;;;;;5013589;28;20210;-74
2023/08/06 09:09:15;;;;;;;4.80;3.50;;;17.70;99.90;;;;;;5014271;28;20188;-73
2023/08/06 09:11:45;;;;;;;7.05;3.10;;;17.60;99.90;;;;;;5010722;28;20330;-73
2023/08/06 09:14:11;;;;;;;5.65;3.20;;;17.60;99.90;;;;;;4996842;28;20267;-73
2023/08/06 09:16:38;;;;;;;3.70;3.05;;;17.60;99.90;;;;;;5013330;28;20212;-73
2023/08/06 09:19:08;;;;;;;4.60;2.97;;;17.70;99.90;;;;;;4995854;28;20183;-72
2023/08/06 09:21:37;;;;;;;4.88;3.25;;;17.70;99.90;;;;;;5012902;28;20188;-72
2023/08/06 09:24:10;;;;;;;5.30;3.17;;;17.80;99.90;;;;;;5013880;28;20179;-72
2023/08/06 09:26:38;;;;;;;6.53;3.42;;;17.80;99.90;;;;;;4995558;28;20230;-72
2023/08/06 09:29:08;;;;;;;6.80;2.90;;;17.90;99.90;;;;;;5013605;28;20192;-72
2023/08/06 09:31:41;;;;;;;6.70;3.85;;;18.00;99.90;;;;;;4995969;28;20216;-72
2023/08/06 09:34:12;;;;;;;4.63;3.13;;;18.00;99.90;;;;;;4995778;28;20230;-72
2023/08/06 09:36:42;;;;;;;9.20;3.70;;;18.20;99.90;;;;;;5013385;28;20209;-73
2023/08/06 09:39:26;;;;;;;7.97;3.45;;;18.30;99.90;;;;;;4995372;28;20184;-73
2023/08/06 09:42:23;;;;;;;6.55;3.58;;;18.40;99.90;;;;;;4995855;28;20163;-73
2023/08/06 09:44:48;;;;;;;5.15;3.47;;;18.40;99.90;;;;;;5012574;28;20183;-72
2023/08/06 09:47:17;;;;;;;3.97;3.33;;;18.40;99.90;;;;;;5026597;28;20212;-73
2023/08/06 09:49:45;;;;;;;5.35;3.33;;;18.40;99.90;;;;;;4997460;28;20190;-73
2023/08/06 09:52:12;;;;;;;5.28;3.40;;;18.50;99.90;;;;;;4999105;28;20187;-73
2023/08/06 09:54:38;;;;;;;5.22;3.35;;;18.60;99.90;;;;;;5022983;28;20305;-74
2023/08/06 09:57:05;;;;;;;5.55;3.58;;;18.70;99.90;;;;;;5006536;28;20217;-73
2023/08/06 09:59:33;;;;;;;5.65;3.53;;;18.90;99.90;;;;;;5003702;28;20726;-73
2023/08/06 10:01:59;;;;;;;4.00;3.10;;;18.90;99.90;;;;;;4989577;28;20207;-75
2023/08/06 10:04:26;;;;;;;4.18;3.08;;;19.10;99.90;;;;;;5021661;28;20167;-72
2023/08/06 10:06:53;;;;;;;5.38;2.58;;;19.30;99.90;;;;;;5002341;28;20186;-73
2023/08/06 10:09:20;;;;;;;4.15;2.63;;;19.30;99.90;;;;;;5018307;28;20699;-73
2023/08/06 10:11:52;;;;;;;5.35;2.92;;;19.30;99.90;;;;;;5002997;28;20222;-72
2023/08/06 10:14:25;;;;;;;5.78;2.70;;;19.30;99.90;;;;;;5004999;28;20193;-73
2023/08/06 10:16:51;;;;;;;3.03;2.33;;;19.10;99.90;;;;;;5006015;28;20723;-74
2023/08/06 10:19:17;;;;;;;4.93;2.63;;;19.20;99.90;;;;;;5020712;28;20178;-73
2023/08/06 10:22:11;;;;;;;3.78;2.90;;;19.30;99.90;;;;;;4997763;28;20199;-74
2023/08/06 10:24:57;;;;;;;6.93;2.95;;;19.40;99.90;;;;;;5014572;28;20184;-72
2023/08/06 10:27:33;;;;;;;5.00;2.83;;;19.60;99.90;;;;;;5018033;28;20215;-72
2023/08/06 10:30:26;;;;;;;6.80;3.42;;;19.60;99.90;;;;;;5003581;28;20180;-71
2023/08/06 10:32:54;;;;;;;8.40;3.67;;;19.60;99.90;;;;;;5004636;28;20180;-72
2023/08/06 10:35:50;;;;;;;8.13;4.60;;;19.50;99.90;;;;;;5027820;28;20246;-72
2023/08/06 10:38:27;;;;;;;9.23;6.82;;;19.30;99.90;;;;;;5001653;28;20175;-72
2023/08/06 10:40:52;;;;;;;10.57;7.65;;;19.10;99.90;;;;;;5021494;28;20183;-72
2023/08/06 10:43:31;;;;;;;9.50;7.40;;;19.10;99.90;;;;;;5016417;28;20184;-73
2023/08/06 10:45:59;;;;;;;18.02;11.98;;;19.10;99.90;;;;;;5001089;28;20749;-74
2023/08/06 10:48:31;;;;;;;19.92;14.57;;;19.30;99.90;;;;;;5016814;28;20655;-72
2023/08/06 10:50:59;;;;;;;22.00;17.30;;;19.60;99.90;;;;;;5014579;28;20182;-73
2023/08/06 10:53:25;;;;;;;20.83;15.93;;;19.50;99.90;;;;;;5029409;28;20262;-72
2023/08/06 10:55:51;;;;;;;21.80;15.88;;;19.50;99.90;;;;;;5036149;28;20191;-73
2023/08/06 10:58:17;;;;;;;20.23;17.10;;;19.50;99.90;;;;;;4998617;28;20652;-73
2023/08/06 11:00:43;;;;;;;19.88;15.77;;;19.70;99.90;;;;;;5017400;28;20186;-73
2023/08/06 11:03:09;;;;;;;17.90;14.73;;;19.70;99.90;;;;;;5008654;28;20694;-73
2023/08/06 11:05:35;;;;;;;17.23;13.52;;;19.60;99.90;;;;;;5004375;28;20623;-73
2023/08/06 11:08:01;;;;;;;22.60;14.23;;;19.60;99.90;;;;;;5019193;28;20249;-73
2023/08/06 11:10:27;;;;;;;19.58;14.35;;;19.50;99.90;;;;;;5031411;28;20176;-73
2023/08/06 11:12:53;;;;;;;17.45;14.85;;;19.50;99.90;;;;;;5002187;28;20556;-73
2023/08/06 11:15:21;;;;;;;20.10;13.57;;;19.70;99.90;;;;;;5023087;28;20186;-73
2023/08/06 11:17:47;;;;;;;15.82;13.02;;;20.00;99.90;;;;;;5011642;28;20259;-73
2023/08/06 11:20:13;;;;;;;13.27;11.48;;;20.40;99.90;;;;;;5023068;28;20180;-73
2023/08/06 11:22:39;;;;;;;14.38;10.60;;;20.50;99.90;;;;;;5028965;28;20176;-73
2023/08/06 11:25:07;;;;;;;13.55;10.25;;;20.60;99.90;;;;;;5021088;28;20210;-77
2023/08/06 11:27:33;;;;;;;11.05;8.75;;;20.60;99.90;;;;;;5001640;28;20222;-77
2023/08/06 11:29:59;;;;;;;11.15;8.27;;;20.50;99.90;;;;;;5004511;28;20179;-77
2023/08/06 11:32:27;;;;;;;8.32;6.45;;;20.50;99.90;;;;;;5014091;28;20188;-77
2023/08/06 11:34:55;;;;;;;6.22;5.47;;;20.40;99.90;;;;;;5001271;28;20223;-76
2023/08/06 11:37:25;;;;;;;7.10;4.95;;;20.10;99.90;;;;;;4999455;28;20290;-76
2023/08/06 11:39:51;;;;;;;8.27;5.05;;;19.80;99.90;;;;;;4998012;28;20194;-77
2023/08/06 11:42:17;;;;;;;6.07;4.57;;;19.60;99.90;;;;;;5017489;28;20670;-76
2023/08/06 11:44:46;;;;;;;7.45;4.75;;;19.40;99.90;;;;;;4997156;28;20678;-76
2023/08/06 11:47:17;;;;;;;8.20;4.95;;;19.20;99.90;;;;;;5010016;28;21895;-76
2023/08/06 11:49:48;;;;;;;9.68;5.20;;;19.10;99.90;;;;;;4996899;28;20184;-76
2023/08/06 11:52:23;;;;;;;8.13;4.95;;;19.00;99.90;;;;;;5014251;28;20187;-77
2023/08/06 11:55:02;;;;;;;6.55;4.88;;;19.10;99.90;;;;;;5016048;28;20233;-76
2023/08/06 11:57:32;;;;;;;5.57;4.68;;;19.00;99.90;;;;;;5015788;28;20200;-76
2023/08/06 12:00:05;;;;;;;8.38;4.50;;;19.00;99.90;;;;;;4998160;28;20266;-73
2023/08/06 12:02:35;;;;;;;6.13;4.88;;;19.10;99.90;;;;;;5015127;28;20186;-72
2023/08/06 12:05:20;;;;;;;8.85;5.95;;;19.00;99.90;;;;;;5015287;28;20184;-73
2023/08/06 12:07:55;;;;;;;6.70;4.85;;;18.80;99.90;;;;;;5013384;28;20206;-74
2023/08/06 12:10:24;;;;;;;5.70;4.13;;;18.80;99.90;;;;;;4997203;28;20198;-74
2023/08/06 12:12:50;;;;;;;4.93;4.32;;;18.80;99.90;;;;;;5013286;28;20167;-73
2023/08/06 12:15:16;;;;;;;4.30;3.45;;;18.80;99.90;;;;;;4996501;28;20187;-74
2023/08/06 12:17:42;;;;;;;6.38;3.78;;;18.70;99.90;;;;;;5005980;28;20175;-74
2023/08/06 12:20:08;;;;;;;3.47;3.17;;;18.80;99.90;;;;;;5005453;28;20195;-74
2023/08/06 12:22:38;;;;;;;4.05;3.65;;;18.80;99.90;;;;;;5003673;28;20194;-73
2023/08/06 12:25:08;;;;;;;5.07;3.78;;;18.80;99.90;;;;;;5013163;28;20636;-72
2023/08/06 12:27:35;;;;;;;5.65;4.05;;;18.80;99.90;;;;;;5013829;28;20211;-72
2023/08/06 12:30:01;;;;;;;5.60;4.05;;;19.00;99.90;;;;;;5022600;28;20188;-72
2023/08/06 12:32:26;;;;;;;4.50;3.75;;;18.90;99.90;;;;;;5022890;28;20228;-72
2023/08/06 12:34:52;;;;;;;5.75;4.18;;;19.00;99.90;;;;;;5017943;28;20211;-73
2023/08/06 12:37:18;;;;;;;4.32;3.63;;;19.20;99.90;;;;;;5027944;28;20540;-73
2023/08/06 12:39:44;;;;;;;3.53;3.22;;;19.30;99.90;;;;;;5026758;28;20179;-73
2023/08/06 12:42:10;;;;;;;3.90;3.58;;;19.30;99.90;;;;;;5016792;28;20211;-74
2023/08/06 12:44:36;;;;;;;6.03;3.97;;;19.50;99.90;;;;;;5017627;28;20267;-74
2023/08/06 12:47:02;;;;;;;4.35;3.78;;;19.50;99.90;;;;;;5030405;28;20207;-72
2023/08/06 12:49:28;;;;;;;4.63;3.85;;;19.40;99.90;;;;;;5014776;28;20183;-72
2023/08/06 12:51:56;;;;;;;5.72;4.65;;;19.00;99.90;;;;;;5016417;28;20194;-72